sensor_id;sensor_type;location;lat;lon;timestamp;P1;durP1;ratioP1;P2;durP2;ratioP2
59434;SDS011;45241;49.768;8.636;2022-08-19T00:01:50;14.60;;;11.02;;
59434;SDS011;45241;49.768;8.636;2022-08-19T00:04:18;15.70;;;11.32;;
59434;SDS011;45241;49.768;8.636;2022-08-19T00:06:46;13.33;;;11.67;;
59434;SDS011;45241;49.768;8.636;2022-08-19T00:09:13;15.93;;;11.80;;
59434;SDS011;45241;49.768;8.636;2022-08-19T00:11:40;14.87;;;11.33;;
59434;SDS011;45241;49.768;8.636;2022-08-19T00:14:08;13.93;;;11.13;;
59434;SDS011;45241;49.768;8.636;2022-08-19T00:16:37;13.32;;;10.82;;
59434;SDS011;45241;49.768;8.636;2022-08-19T00:19:03;12.65;;;10.43;;
59434;SDS011;45241;49.768;8.636;2022-08-19T00:21:29;13.45;;;10.95;;
59434;SDS011;45241;49.768;8.636;2022-08-19T00:23:55;14.27;;;10.70;;
59434;SDS011;45241;49.768;8.636;2022-08-19T00:26:25;14.32;;;11.02;;
59434;SDS011;45241;49.768;8.636;2022-08-19T00:28:51;15.10;;;10.55;;
59434;SDS011;45241;49.768;8.636;2022-08-19T00:31:16;14.52;;;10.93;;
59434;SDS011;45241;49.768;8.636;2022-08-19T00:33:42;13.57;;;10.73;;
59434;SDS011;45241;49.768;8.636;2022-08-19T00:36:08;13.38;;;10.90;;
59434;SDS011;45241;49.768;8.636;2022-08-19T00:38:34;14.02;;;10.57;;
59434;SDS011;45241;49.768;8.636;2022-08-19T00:41:01;14.48;;;10.75;;
59434;SDS011;45241;49.768;8.636;2022-08-19T00:43:26;14.00;;;11.23;;
59434;SDS011;45241;49.768;8.636;2022-08-19T00:45:53;14.32;;;11.63;;
59434;SDS011;45241;49.768;8.636;2022-08-19T00:48:19;15.18;;;10.98;;
59434;SDS011;45241;49.768;8.636;2022-08-19T00:50:45;13.45;;;10.93;;
59434;SDS011;45241;49.768;8.636;2022-08-19T00:53:14;14.10;;;11.20;;
59434;SDS011;45241;49.768;8.636;2022-08-19T00:55:47;15.75;;;11.70;;
59434;SDS011;45241;49.768;8.636;2022-08-19T00:58:16;14.82;;;11.25;;
59434;SDS011;45241;49.768;8.636;2022-08-19T01:00:44;14.00;;;11.43;;
59434;SDS011;45241;49.768;8.636;2022-08-19T01:03:12;16.05;;;11.63;;
59434;SDS011;45241;49.768;8.636;2022-08-19T01:05:41;14.50;;;11.52;;
59434;SDS011;45241;49.768;8.636;2022-08-19T01:08:08;14.27;;;11.82;;
59434;SDS011;45241;49.768;8.636;2022-08-19T01:10:36;13.75;;;11.43;;
59434;SDS011;45241;49.768;8.636;2022-08-19T01:13:05;15.63;;;11.13;;
59434;SDS011;45241;49.768;8.636;2022-08-19T01:15:35;15.70;;;11.23;;
59434;SDS011;45241;49.768;8.636;2022-08-19T01:18:07;14.52;;;11.70;;
59434;SDS011;45241;49.768;8.636;2022-08-19T01:20:36;14.60;;;11.20;;
59434;SDS011;45241;49.768;8.636;2022-08-19T01:23:02;13.57;;;11.40;;
59434;SDS011;45241;49.768;8.636;2022-08-19T01:25:29;14.50;;;11.93;;
59434;SDS011;45241;49.768;8.636;2022-08-19T01:27:57;14.85;;;12.45;;
59434;SDS011;45241;49.768;8.636;2022-08-19T01:30:27;16.88;;;12.40;;
59434;SDS011;45241;49.768;8.636;2022-08-19T01:32:56;15.00;;;12.32;;
59434;SDS011;45241;49.768;8.636;2022-08-19T01:35:23;13.80;;;11.23;;
59434;SDS011;45241;49.768;8.636;2022-08-19T01:37:51;14.88;;;11.45;;
59434;SDS011;45241;49.768;8.636;2022-08-19T01:40:34;15.88;;;12.05;;
59434;SDS011;45241;49.768;8.636;2022-08-19T01:43:01;15.73;;;12.10;;
59434;SDS011;45241;49.768;8.636;2022-08-19T01:45:28;17.60;;;11.88;;
59434;SDS011;45241;49.768;8.636;2022-08-19T01:47:55;14.27;;;11.60;;
59434;SDS011;45241;49.768;8.636;2022-08-19T01:50:21;14.27;;;11.27;;
59434;SDS011;45241;49.768;8.636;2022-08-19T01:52:46;16.85;;;12.25;;
59434;SDS011;45241;49.768;8.636;2022-08-19T01:55:14;16.33;;;11.75;;
59434;SDS011;45241;49.768;8.636;2022-08-19T01:57:42;15.65;;;12.38;;
59434;SDS011;45241;49.768;8.636;2022-08-19T02:00:14;15.57;;;11.55;;
59434;SDS011;45241;49.768;8.636;2022-08-19T02:05:07;18.45;;;13.35;;
59434;SDS011;45241;49.768;8.636;2022-08-19T02:07:34;14.60;;;11.68;;
59434;SDS011;45241;49.768;8.636;2022-08-19T02:10:04;16.10;;;11.65;;
59434;SDS011;45241;49.768;8.636;2022-08-19T02:12:32;15.50;;;11.65;;
59434;SDS011;45241;49.768;8.636;2022-08-19T02:14:58;18.90;;;12.50;;
59434;SDS011;45241;49.768;8.636;2022-08-19T02:17:24;16.20;;;11.70;;
59434;SDS011;45241;49.768;8.636;2022-08-19T02:19:49;15.38;;;12.25;;
59434;SDS011;45241;49.768;8.636;2022-08-19T02:22:15;17.67;;;12.27;;
59434;SDS011;45241;49.768;8.636;2022-08-19T02:24:40;17.27;;;12.38;;
59434;SDS011;45241;49.768;8.636;2022-08-19T02:27:05;15.18;;;11.65;;
59434;SDS011;45241;49.768;8.636;2022-08-19T02:29:31;16.40;;;11.98;;
59434;SDS011;45241;49.768;8.636;2022-08-19T02:31:56;16.13;;;11.65;;
59434;SDS011;45241;49.768;8.636;2022-08-19T02:34:22;15.95;;;11.90;;
59434;SDS011;45241;49.768;8.636;2022-08-19T02:36:49;15.68;;;12.05;;
59434;SDS011;45241;49.768;8.636;2022-08-19T02:39:16;14.80;;;11.80;;
59434;SDS011;45241;49.768;8.636;2022-08-19T02:41:41;14.63;;;11.90;;
59434;SDS011;45241;49.768;8.636;2022-08-19T02:44:06;12.93;;;10.82;;
59434;SDS011;45241;49.768;8.636;2022-08-19T02:46:32;16.42;;;12.20;;
59434;SDS011;45241;49.768;8.636;2022-08-19T02:49:03;15.80;;;12.80;;
59434;SDS011;45241;49.768;8.636;2022-08-19T02:51:37;14.23;;;11.65;;
59434;SDS011;45241;49.768;8.636;2022-08-19T02:54:05;14.60;;;11.50;;
59434;SDS011;45241;49.768;8.636;2022-08-19T02:56:34;15.32;;;12.52;;
59434;SDS011;45241;49.768;8.636;2022-08-19T02:59:00;15.88;;;12.15;;
59434;SDS011;45241;49.768;8.636;2022-08-19T03:01:28;15.23;;;11.98;;
59434;SDS011;45241;49.768;8.636;2022-08-19T03:03:55;15.70;;;12.35;;
59434;SDS011;45241;49.768;8.636;2022-08-19T03:06:21;20.45;;;11.98;;
59434;SDS011;45241;49.768;8.636;2022-08-19T03:08:48;14.13;;;12.18;;
59434;SDS011;45241;49.768;8.636;2022-08-19T03:11:22;16.40;;;12.60;;
59434;SDS011;45241;49.768;8.636;2022-08-19T03:13:50;17.50;;;12.27;;
59434;SDS011;45241;49.768;8.636;2022-08-19T03:16:17;17.90;;;12.45;;
59434;SDS011;45241;49.768;8.636;2022-08-19T03:18:43;17.05;;;12.82;;
59434;SDS011;45241;49.768;8.636;2022-08-19T03:21:09;16.50;;;12.20;;
59434;SDS011;45241;49.768;8.636;2022-08-19T03:23:39;15.77;;;12.40;;
59434;SDS011;45241;49.768;8.636;2022-08-19T03:26:04;18.13;;;12.63;;
59434;SDS011;45241;49.768;8.636;2022-08-19T03:28:31;14.27;;;12.02;;
59434;SDS011;45241;49.768;8.636;2022-08-19T03:30:58;17.05;;;12.90;;
59434;SDS011;45241;49.768;8.636;2022-08-19T03:33:26;16.75;;;12.65;;
59434;SDS011;45241;49.768;8.636;2022-08-19T03:36:26;15.20;;;11.32;;
59434;SDS011;45241;49.768;8.636;2022-08-19T03:38:50;14.73;;;11.65;;
59434;SDS011;45241;49.768;8.636;2022-08-19T03:43:44;16.35;;;12.43;;
59434;SDS011;45241;49.768;8.636;2022-08-19T03:46:17;15.20;;;12.13;;
59434;SDS011;45241;49.768;8.636;2022-08-19T03:48:48;15.88;;;11.50;;
59434;SDS011;45241;49.768;8.636;2022-08-19T03:51:23;14.85;;;11.45;;
59434;SDS011;45241;49.768;8.636;2022-08-19T03:53:56;16.52;;;12.23;;
59434;SDS011;45241;49.768;8.636;2022-08-19T03:56:23;15.13;;;11.43;;
59434;SDS011;45241;49.768;8.636;2022-08-19T03:58:50;15.50;;;11.43;;
59434;SDS011;45241;49.768;8.636;2022-08-19T04:01:18;15.75;;;11.30;;
59434;SDS011;45241;49.768;8.636;2022-08-19T04:03:45;16.13;;;11.52;;
59434;SDS011;45241;49.768;8.636;2022-08-19T04:06:16;14.75;;;11.55;;
59434;SDS011;45241;49.768;8.636;2022-08-19T04:08:46;15.80;;;11.23;;
59434;SDS011;45241;49.768;8.636;2022-08-19T04:11:13;14.82;;;10.57;;
59434;SDS011;45241;49.768;8.636;2022-08-19T04:13:41;15.20;;;11.15;;
59434;SDS011;45241;49.768;8.636;2022-08-19T04:16:08;14.43;;;11.00;;
59434;SDS011;45241;49.768;8.636;2022-08-19T04:18:35;13.27;;;10.32;;
59434;SDS011;45241;49.768;8.636;2022-08-19T04:21:01;14.30;;;10.70;;
59434;SDS011;45241;49.768;8.636;2022-08-19T04:23:27;14.55;;;11.30;;
59434;SDS011;45241;49.768;8.636;2022-08-19T04:25:53;15.23;;;11.13;;
59434;SDS011;45241;49.768;8.636;2022-08-19T04:28:19;14.18;;;11.05;;
59434;SDS011;45241;49.768;8.636;2022-08-19T04:30:46;13.80;;;10.43;;
59434;SDS011;45241;49.768;8.636;2022-08-19T04:33:15;16.27;;;11.55;;
59434;SDS011;45241;49.768;8.636;2022-08-19T04:35:45;13.82;;;10.90;;
59434;SDS011;45241;49.768;8.636;2022-08-19T04:40:41;14.13;;;11.52;;
59434;SDS011;45241;49.768;8.636;2022-08-19T04:43:30;13.77;;;11.60;;
59434;SDS011;45241;49.768;8.636;2022-08-19T04:45:57;14.13;;;10.60;;
59434;SDS011;45241;49.768;8.636;2022-08-19T04:48:46;12.70;;;10.82;;
59434;SDS011;45241;49.768;8.636;2022-08-19T04:51:16;12.93;;;10.20;;
59434;SDS011;45241;49.768;8.636;2022-08-19T04:53:44;13.90;;;10.48;;
59434;SDS011;45241;49.768;8.636;2022-08-19T04:56:12;13.87;;;10.57;;
59434;SDS011;45241;49.768;8.636;2022-08-19T05:02:08;13.95;;;10.52;;
59434;SDS011;45241;49.768;8.636;2022-08-19T05:04:34;17.10;;;10.50;;
59434;SDS011;45241;49.768;8.636;2022-08-19T05:07:03;14.45;;;10.95;;
59434;SDS011;45241;49.768;8.636;2022-08-19T05:09:29;15.40;;;10.60;;
59434;SDS011;45241;49.768;8.636;2022-08-19T05:11:54;14.25;;;11.07;;
59434;SDS011;45241;49.768;8.636;2022-08-19T05:14:20;13.82;;;10.60;;
59434;SDS011;45241;49.768;8.636;2022-08-19T05:16:45;14.82;;;11.13;;
59434;SDS011;45241;49.768;8.636;2022-08-19T05:19:11;13.10;;;10.50;;
59434;SDS011;45241;49.768;8.636;2022-08-19T05:21:55;16.23;;;10.88;;
59434;SDS011;45241;49.768;8.636;2022-08-19T05:24:39;13.95;;;10.43;;
59434;SDS011;45241;49.768;8.636;2022-08-19T05:27:04;12.85;;;10.07;;
59434;SDS011;45241;49.768;8.636;2022-08-19T05:29:30;13.98;;;10.70;;
59434;SDS011;45241;49.768;8.636;2022-08-19T05:31:59;14.70;;;10.07;;
59434;SDS011;45241;49.768;8.636;2022-08-19T05:34:25;13.77;;;10.55;;
59434;SDS011;45241;49.768;8.636;2022-08-19T05:36:52;13.95;;;10.18;;
59434;SDS011;45241;49.768;8.636;2022-08-19T05:39:22;14.88;;;10.60;;
59434;SDS011;45241;49.768;8.636;2022-08-19T05:41:50;16.88;;;11.02;;
59434;SDS011;45241;49.768;8.636;2022-08-19T05:44:24;14.98;;;10.45;;
59434;SDS011;45241;49.768;8.636;2022-08-19T05:46:50;15.27;;;11.40;;
59434;SDS011;45241;49.768;8.636;2022-08-19T05:49:18;15.10;;;11.38;;
59434;SDS011;45241;49.768;8.636;2022-08-19T05:51:48;14.25;;;10.73;;
59434;SDS011;45241;49.768;8.636;2022-08-19T05:54:16;13.52;;;11.18;;
59434;SDS011;45241;49.768;8.636;2022-08-19T05:56:43;14.27;;;10.68;;
59434;SDS011;45241;49.768;8.636;2022-08-19T05:59:09;16.27;;;11.32;;
59434;SDS011;45241;49.768;8.636;2022-08-19T06:01:38;15.27;;;11.05;;
59434;SDS011;45241;49.768;8.636;2022-08-19T06:04:07;16.55;;;10.85;;
59434;SDS011;45241;49.768;8.636;2022-08-19T06:06:33;14.57;;;11.32;;
59434;SDS011;45241;49.768;8.636;2022-08-19T06:09:04;13.52;;;10.70;;
59434;SDS011;45241;49.768;8.636;2022-08-19T06:14:07;16.40;;;11.80;;
59434;SDS011;45241;49.768;8.636;2022-08-19T06:16:35;15.90;;;11.20;;
59434;SDS011;45241;49.768;8.636;2022-08-19T06:19:04;16.92;;;11.68;;
59434;SDS011;45241;49.768;8.636;2022-08-19T06:21:32;17.25;;;11.98;;
59434;SDS011;45241;49.768;8.636;2022-08-19T06:23:58;14.70;;;11.25;;
59434;SDS011;45241;49.768;8.636;2022-08-19T06:26:25;14.98;;;10.75;;
59434;SDS011;45241;49.768;8.636;2022-08-19T06:28:51;14.43;;;11.13;;
59434;SDS011;45241;49.768;8.636;2022-08-19T06:31:18;14.65;;;11.43;;
59434;SDS011;45241;49.768;8.636;2022-08-19T06:33:47;15.90;;;11.48;;
59434;SDS011;45241;49.768;8.636;2022-08-19T06:36:17;17.85;;;12.05;;
59434;SDS011;45241;49.768;8.636;2022-08-19T06:38:47;14.23;;;11.00;;
59434;SDS011;45241;49.768;8.636;2022-08-19T06:41:12;14.85;;;11.00;;
59434;SDS011;45241;49.768;8.636;2022-08-19T06:43:38;15.30;;;10.82;;
59434;SDS011;45241;49.768;8.636;2022-08-19T06:46:03;15.30;;;9.63;;
59434;SDS011;45241;49.768;8.636;2022-08-19T06:48:29;15.55;;;11.38;;
59434;SDS011;45241;49.768;8.636;2022-08-19T06:50:56;13.98;;;10.55;;
59434;SDS011;45241;49.768;8.636;2022-08-19T06:53:21;14.32;;;10.30;;
59434;SDS011;45241;49.768;8.636;2022-08-19T06:55:47;15.35;;;10.18;;
59434;SDS011;45241;49.768;8.636;2022-08-19T06:58:12;13.20;;;9.90;;
59434;SDS011;45241;49.768;8.636;2022-08-19T07:00:39;12.82;;;9.00;;
59434;SDS011;45241;49.768;8.636;2022-08-19T07:03:04;12.02;;;9.60;;
59434;SDS011;45241;49.768;8.636;2022-08-19T07:05:30;14.50;;;10.57;;
59434;SDS011;45241;49.768;8.636;2022-08-19T07:07:55;14.48;;;9.68;;
59434;SDS011;45241;49.768;8.636;2022-08-19T07:10:24;13.70;;;9.80;;
59434;SDS011;45241;49.768;8.636;2022-08-19T07:12:50;13.38;;;10.18;;
59434;SDS011;45241;49.768;8.636;2022-08-19T07:15:15;15.25;;;10.63;;
59434;SDS011;45241;49.768;8.636;2022-08-19T07:17:41;14.25;;;10.00;;
59434;SDS011;45241;49.768;8.636;2022-08-19T07:20:08;12.32;;;9.27;;
59434;SDS011;45241;49.768;8.636;2022-08-19T07:22:34;13.52;;;8.98;;
59434;SDS011;45241;49.768;8.636;2022-08-19T07:25:00;13.20;;;9.15;;
59434;SDS011;45241;49.768;8.636;2022-08-19T07:27:27;13.23;;;9.20;;
59434;SDS011;45241;49.768;8.636;2022-08-19T07:29:53;12.20;;;10.10;;
59434;SDS011;45241;49.768;8.636;2022-08-19T07:32:18;12.35;;;9.50;;
59434;SDS011;45241;49.768;8.636;2022-08-19T07:34:43;13.85;;;9.88;;
59434;SDS011;45241;49.768;8.636;2022-08-19T07:37:10;11.20;;;8.88;;
59434;SDS011;45241;49.768;8.636;2022-08-19T07:39:36;11.13;;;8.40;;
59434;SDS011;45241;49.768;8.636;2022-08-19T07:42:06;10.33;;;7.83;;
59434;SDS011;45241;49.768;8.636;2022-08-19T07:44:33;12.32;;;8.50;;
59434;SDS011;45241;49.768;8.636;2022-08-19T07:46:59;10.55;;;8.40;;
59434;SDS011;45241;49.768;8.636;2022-08-19T07:49:26;9.93;;;7.57;;
59434;SDS011;45241;49.768;8.636;2022-08-19T07:54:23;10.70;;;7.43;;
59434;SDS011;45241;49.768;8.636;2022-08-19T07:56:49;9.35;;;6.93;;
59434;SDS011;45241;49.768;8.636;2022-08-19T07:59:15;10.95;;;7.53;;
59434;SDS011;45241;49.768;8.636;2022-08-19T08:01:42;9.65;;;6.95;;
59434;SDS011;45241;49.768;8.636;2022-08-19T08:04:08;7.22;;;5.30;;
59434;SDS011;45241;49.768;8.636;2022-08-19T08:06:55;10.27;;;6.00;;
59434;SDS011;45241;49.768;8.636;2022-08-19T08:09:40;6.18;;;4.93;;
59434;SDS011;45241;49.768;8.636;2022-08-19T08:12:12;6.78;;;4.78;;
59434;SDS011;45241;49.768;8.636;2022-08-19T08:14:48;6.68;;;4.88;;
59434;SDS011;45241;49.768;8.636;2022-08-19T08:17:16;6.47;;;5.03;;
59434;SDS011;45241;49.768;8.636;2022-08-19T08:19:44;7.65;;;4.90;;
59434;SDS011;45241;49.768;8.636;2022-08-19T08:22:10;6.63;;;5.03;;
59434;SDS011;45241;49.768;8.636;2022-08-19T08:25:00;7.60;;;5.37;;
59434;SDS011;45241;49.768;8.636;2022-08-19T08:27:30;9.63;;;6.20;;
59434;SDS011;45241;49.768;8.636;2022-08-19T08:29:56;8.63;;;5.50;;
59434;SDS011;45241;49.768;8.636;2022-08-19T08:32:21;6.55;;;4.88;;
59434;SDS011;45241;49.768;8.636;2022-08-19T08:34:47;5.45;;;4.75;;
59434;SDS011;45241;49.768;8.636;2022-08-19T08:37:13;6.88;;;4.55;;
59434;SDS011;45241;49.768;8.636;2022-08-19T08:39:38;8.57;;;5.53;;
59434;SDS011;45241;49.768;8.636;2022-08-19T08:44:50;6.20;;;5.18;;
59434;SDS011;45241;49.768;8.636;2022-08-19T08:47:25;6.28;;;5.22;;
59434;SDS011;45241;49.768;8.636;2022-08-19T08:50:03;6.45;;;4.80;;
59434;SDS011;45241;49.768;8.636;2022-08-19T08:52:33;6.40;;;4.85;;
59434;SDS011;45241;49.768;8.636;2022-08-19T08:55:04;6.03;;;4.75;;
59434;SDS011;45241;49.768;8.636;2022-08-19T08:57:37;6.90;;;4.65;;
59434;SDS011;45241;49.768;8.636;2022-08-19T09:00:19;7.50;;;5.10;;
59434;SDS011;45241;49.768;8.636;2022-08-19T09:02:47;5.93;;;5.03;;
59434;SDS011;45241;49.768;8.636;2022-08-19T09:05:13;6.22;;;4.32;;
59434;SDS011;45241;49.768;8.636;2022-08-19T09:07:42;7.03;;;4.20;;
59434;SDS011;45241;49.768;8.636;2022-08-19T09:10:39;3.55;;;3.25;;
59434;SDS011;45241;49.768;8.636;2022-08-19T09:15:40;5.88;;;4.00;;
59434;SDS011;45241;49.768;8.636;2022-08-19T09:18:10;5.03;;;4.07;;
59434;SDS011;45241;49.768;8.636;2022-08-19T09:20:36;4.45;;;4.00;;
59434;SDS011;45241;49.768;8.636;2022-08-19T09:23:01;4.93;;;4.07;;
59434;SDS011;45241;49.768;8.636;2022-08-19T09:25:27;5.13;;;3.85;;
59434;SDS011;45241;49.768;8.636;2022-08-19T09:27:53;6.10;;;3.75;;
59434;SDS011;45241;49.768;8.636;2022-08-19T09:30:22;4.50;;;3.80;;
59434;SDS011;45241;49.768;8.636;2022-08-19T09:32:50;3.85;;;3.38;;
59434;SDS011;45241;49.768;8.636;2022-08-19T09:35:20;4.15;;;3.38;;
59434;SDS011;45241;49.768;8.636;2022-08-19T09:37:47;3.83;;;3.42;;
59434;SDS011;45241;49.768;8.636;2022-08-19T09:40:14;5.20;;;3.95;;
59434;SDS011;45241;49.768;8.636;2022-08-19T09:42:39;5.50;;;3.65;;
59434;SDS011;45241;49.768;8.636;2022-08-19T09:45:05;4.57;;;3.78;;
59434;SDS011;45241;49.768;8.636;2022-08-19T09:47:30;5.47;;;4.35;;
59434;SDS011;45241;49.768;8.636;2022-08-19T09:49:57;5.05;;;4.13;;
59434;SDS011;45241;49.768;8.636;2022-08-19T09:52:22;5.45;;;3.97;;
59434;SDS011;45241;49.768;8.636;2022-08-19T09:54:51;4.05;;;3.55;;
59434;SDS011;45241;49.768;8.636;2022-08-19T09:57:17;4.85;;;3.92;;
59434;SDS011;45241;49.768;8.636;2022-08-19T09:59:43;4.53;;;3.78;;
59434;SDS011;45241;49.768;8.636;2022-08-19T10:02:09;5.32;;;3.75;;
59434;SDS011;45241;49.768;8.636;2022-08-19T10:04:35;5.57;;;4.13;;
59434;SDS011;45241;49.768;8.636;2022-08-19T10:07:19;4.50;;;4.05;;
59434;SDS011;45241;49.768;8.636;2022-08-19T10:09:44;4.72;;;3.72;;
59434;SDS011;45241;49.768;8.636;2022-08-19T10:12:10;5.10;;;4.50;;
59434;SDS011;45241;49.768;8.636;2022-08-19T10:14:35;4.68;;;4.20;;
59434;SDS011;45241;49.768;8.636;2022-08-19T10:17:02;4.80;;;4.25;;
59434;SDS011;45241;49.768;8.636;2022-08-19T10:19:28;6.68;;;4.93;;
59434;SDS011;45241;49.768;8.636;2022-08-19T10:22:02;4.85;;;4.10;;
59434;SDS011;45241;49.768;8.636;2022-08-19T10:24:28;5.60;;;4.50;;
59434;SDS011;45241;49.768;8.636;2022-08-19T10:26:55;5.95;;;4.47;;
59434;SDS011;45241;49.768;8.636;2022-08-19T10:29:22;6.47;;;4.38;;
59434;SDS011;45241;49.768;8.636;2022-08-19T10:31:47;6.43;;;4.93;;
59434;SDS011;45241;49.768;8.636;2022-08-19T10:34:13;5.65;;;4.22;;
59434;SDS011;45241;49.768;8.636;2022-08-19T10:36:38;6.68;;;5.00;;
59434;SDS011;45241;49.768;8.636;2022-08-19T10:39:06;7.07;;;4.85;;
59434;SDS011;45241;49.768;8.636;2022-08-19T10:41:34;5.35;;;4.53;;
59434;SDS011;45241;49.768;8.636;2022-08-19T10:44:05;5.53;;;4.93;;
59434;SDS011;45241;49.768;8.636;2022-08-19T10:46:33;7.88;;;4.93;;
59434;SDS011;45241;49.768;8.636;2022-08-19T10:49:01;6.73;;;6.03;;
59434;SDS011;45241;49.768;8.636;2022-08-19T10:51:27;7.25;;;6.28;;
59434;SDS011;45241;49.768;8.636;2022-08-19T10:54:13;8.07;;;5.97;;
59434;SDS011;45241;49.768;8.636;2022-08-19T10:56:39;5.40;;;4.90;;
59434;SDS011;45241;49.768;8.636;2022-08-19T10:59:17;8.70;;;6.60;;
59434;SDS011;45241;49.768;8.636;2022-08-19T11:01:43;7.15;;;6.03;;
59434;SDS011;45241;49.768;8.636;2022-08-19T11:04:47;7.22;;;6.25;;
59434;SDS011;45241;49.768;8.636;2022-08-19T11:07:15;7.38;;;6.03;;
59434;SDS011;45241;49.768;8.636;2022-08-19T11:09:41;6.95;;;6.00;;
59434;SDS011;45241;49.768;8.636;2022-08-19T11:12:07;7.70;;;5.72;;
59434;SDS011;45241;49.768;8.636;2022-08-19T11:14:37;7.32;;;5.55;;
59434;SDS011;45241;49.768;8.636;2022-08-19T11:17:03;9.38;;;6.07;;
59434;SDS011;45241;49.768;8.636;2022-08-19T11:19:30;6.13;;;5.53;;
59434;SDS011;45241;49.768;8.636;2022-08-19T11:21:56;7.68;;;6.25;;
59434;SDS011;45241;49.768;8.636;2022-08-19T11:24:23;7.65;;;6.85;;
59434;SDS011;45241;49.768;8.636;2022-08-19T11:26:51;8.07;;;6.93;;
59434;SDS011;45241;49.768;8.636;2022-08-19T11:29:20;10.20;;;6.75;;
59434;SDS011;45241;49.768;8.636;2022-08-19T11:31:47;7.43;;;6.70;;
59434;SDS011;45241;49.768;8.636;2022-08-19T11:34:18;7.50;;;6.70;;
59434;SDS011;45241;49.768;8.636;2022-08-19T11:36:46;7.53;;;6.47;;
59434;SDS011;45241;49.768;8.636;2022-08-19T11:39:13;8.13;;;7.10;;
59434;SDS011;45241;49.768;8.636;2022-08-19T11:41:43;9.63;;;8.25;;
59434;SDS011;45241;49.768;8.636;2022-08-19T11:44:09;8.17;;;7.30;;
59434;SDS011;45241;49.768;8.636;2022-08-19T11:46:38;7.63;;;6.93;;
59434;SDS011;45241;49.768;8.636;2022-08-19T11:49:03;10.13;;;7.13;;
59434;SDS011;45241;49.768;8.636;2022-08-19T11:51:33;8.77;;;7.72;;
59434;SDS011;45241;49.768;8.636;2022-08-19T11:54:02;8.23;;;7.03;;
59434;SDS011;45241;49.768;8.636;2022-08-19T11:56:30;8.77;;;6.63;;
59434;SDS011;45241;49.768;8.636;2022-08-19T11:58:55;8.88;;;7.55;;
59434;SDS011;45241;49.768;8.636;2022-08-19T12:01:24;6.95;;;6.25;;
59434;SDS011;45241;49.768;8.636;2022-08-19T12:03:52;8.63;;;6.60;;
59434;SDS011;45241;49.768;8.636;2022-08-19T12:06:28;8.18;;;6.53;;
59434;SDS011;45241;49.768;8.636;2022-08-19T12:08:57;9.45;;;6.88;;
59434;SDS011;45241;49.768;8.636;2022-08-19T12:11:24;7.50;;;6.80;;
59434;SDS011;45241;49.768;8.636;2022-08-19T12:16:43;7.80;;;7.00;;
59434;SDS011;45241;49.768;8.636;2022-08-19T12:19:11;8.52;;;6.63;;
59434;SDS011;45241;49.768;8.636;2022-08-19T12:21:36;6.93;;;6.30;;
59434;SDS011;45241;49.768;8.636;2022-08-19T12:24:02;8.68;;;7.78;;
59434;SDS011;45241;49.768;8.636;2022-08-19T12:26:29;9.88;;;7.72;;
59434;SDS011;45241;49.768;8.636;2022-08-19T12:28:56;8.65;;;7.20;;
59434;SDS011;45241;49.768;8.636;2022-08-19T12:31:23;8.18;;;7.38;;
59434;SDS011;45241;49.768;8.636;2022-08-19T12:33:49;8.95;;;7.20;;
59434;SDS011;45241;49.768;8.636;2022-08-19T12:36:14;7.90;;;7.10;;
59434;SDS011;45241;49.768;8.636;2022-08-19T12:38:41;7.95;;;6.28;;
59434;SDS011;45241;49.768;8.636;2022-08-19T12:41:09;7.63;;;6.07;;
59434;SDS011;45241;49.768;8.636;2022-08-19T12:43:37;6.75;;;6.05;;
59434;SDS011;45241;49.768;8.636;2022-08-19T12:46:03;8.30;;;6.63;;
59434;SDS011;45241;49.768;8.636;2022-08-19T12:48:29;7.75;;;7.05;;
59434;SDS011;45241;49.768;8.636;2022-08-19T12:50:55;6.88;;;6.18;;
59434;SDS011;45241;49.768;8.636;2022-08-19T12:53:21;6.22;;;5.15;;
59434;SDS011;45241;49.768;8.636;2022-08-19T12:55:48;8.25;;;5.40;;
59434;SDS011;45241;49.768;8.636;2022-08-19T12:58:21;5.05;;;4.50;;
59434;SDS011;45241;49.768;8.636;2022-08-19T13:00:46;5.05;;;4.57;;
59434;SDS011;45241;49.768;8.636;2022-08-19T13:03:12;5.60;;;5.10;;
59434;SDS011;45241;49.768;8.636;2022-08-19T13:05:37;5.60;;;5.10;;
59434;SDS011;45241;49.768;8.636;2022-08-19T13:08:02;5.55;;;4.80;;
59434;SDS011;45241;49.768;8.636;2022-08-19T13:10:29;6.70;;;5.38;;
59434;SDS011;45241;49.768;8.636;2022-08-19T13:12:59;5.55;;;5.05;;
59434;SDS011;45241;49.768;8.636;2022-08-19T13:15:26;5.00;;;4.57;;
59434;SDS011;45241;49.768;8.636;2022-08-19T13:17:56;4.50;;;4.10;;
59434;SDS011;45241;49.768;8.636;2022-08-19T13:20:22;6.22;;;4.30;;
59434;SDS011;45241;49.768;8.636;2022-08-19T13:22:50;4.57;;;4.18;;
59434;SDS011;45241;49.768;8.636;2022-08-19T13:25:16;4.20;;;3.80;;
59434;SDS011;45241;49.768;8.636;2022-08-19T13:27:44;4.78;;;4.35;;
59434;SDS011;45241;49.768;8.636;2022-08-19T13:30:11;5.35;;;4.30;;
59434;SDS011;45241;49.768;8.636;2022-08-19T13:32:57;4.50;;;4.10;;
59434;SDS011;45241;49.768;8.636;2022-08-19T13:38:11;3.42;;;3.13;;
59434;SDS011;45241;49.768;8.636;2022-08-19T13:40:38;4.10;;;3.78;;
59434;SDS011;45241;49.768;8.636;2022-08-19T13:43:04;5.97;;;4.40;;
59434;SDS011;45241;49.768;8.636;2022-08-19T13:45:30;4.60;;;4.20;;
59434;SDS011;45241;49.768;8.636;2022-08-19T13:47:59;4.30;;;3.90;;
59434;SDS011;45241;49.768;8.636;2022-08-19T13:50:26;7.00;;;3.80;;
59434;SDS011;45241;49.768;8.636;2022-08-19T13:52:53;4.13;;;3.72;;
59434;SDS011;45241;49.768;8.636;2022-08-19T13:55:19;3.92;;;3.63;;
59434;SDS011;45241;49.768;8.636;2022-08-19T13:57:52;6.55;;;3.67;;
59434;SDS011;45241;49.768;8.636;2022-08-19T14:00:19;4.10;;;3.67;;
59434;SDS011;45241;49.768;8.636;2022-08-19T14:02:46;5.95;;;3.90;;
59434;SDS011;45241;49.768;8.636;2022-08-19T14:05:14;4.18;;;3.45;;
59434;SDS011;45241;49.768;8.636;2022-08-19T14:07:40;5.63;;;3.42;;
59434;SDS011;45241;49.768;8.636;2022-08-19T14:10:07;3.83;;;3.38;;
59434;SDS011;45241;49.768;8.636;2022-08-19T14:12:34;3.95;;;3.58;;
59434;SDS011;45241;49.768;8.636;2022-08-19T14:15:00;4.63;;;3.25;;
59434;SDS011;45241;49.768;8.636;2022-08-19T14:17:27;4.40;;;3.58;;
59434;SDS011;45241;49.768;8.636;2022-08-19T14:19:59;4.10;;;3.08;;
59434;SDS011;45241;49.768;8.636;2022-08-19T14:22:38;3.90;;;3.60;;
59434;SDS011;45241;49.768;8.636;2022-08-19T14:25:06;4.07;;;3.63;;
59434;SDS011;45241;49.768;8.636;2022-08-19T14:27:34;4.00;;;3.33;;
59434;SDS011;45241;49.768;8.636;2022-08-19T14:30:00;4.18;;;3.78;;
59434;SDS011;45241;49.768;8.636;2022-08-19T14:32:26;3.63;;;3.33;;
59434;SDS011;45241;49.768;8.636;2022-08-19T14:34:52;3.95;;;3.55;;
59434;SDS011;45241;49.768;8.636;2022-08-19T14:37:19;6.55;;;4.20;;
59434;SDS011;45241;49.768;8.636;2022-08-19T14:39:45;4.40;;;4.00;;
59434;SDS011;45241;49.768;8.636;2022-08-19T14:42:11;5.40;;;4.10;;
59434;SDS011;45241;49.768;8.636;2022-08-19T14:44:39;3.85;;;3.40;;
59434;SDS011;45241;49.768;8.636;2022-08-19T14:47:04;3.78;;;3.30;;
59434;SDS011;45241;49.768;8.636;2022-08-19T14:49:31;3.75;;;3.30;;
59434;SDS011;45241;49.768;8.636;2022-08-19T14:51:57;3.40;;;3.10;;
59434;SDS011;45241;49.768;8.636;2022-08-19T14:54:22;6.25;;;2.70;;
59434;SDS011;45241;49.768;8.636;2022-08-19T14:56:48;3.78;;;3.40;;
59434;SDS011;45241;49.768;8.636;2022-08-19T14:59:13;5.45;;;3.70;;
59434;SDS011;45241;49.768;8.636;2022-08-19T15:01:39;4.22;;;3.28;;
59434;SDS011;45241;49.768;8.636;2022-08-19T15:04:04;4.25;;;3.40;;
59434;SDS011;45241;49.768;8.636;2022-08-19T15:06:30;4.80;;;3.97;;